createdAt,value
2023-04-24T00:00:59.715Z,84.04
2023-04-24T00:01:59.818Z,84.55
2023-04-24T00:02:59.854Z,84.25
2023-04-24T00:03:59.745Z,83.78
2023-04-24T00:04:59.704Z,84.45
2023-04-24T00:05:59.687Z,84.66
2023-04-24T00:06:59.687Z,84.34
2023-04-24T00:07:59.688Z,83.94
2023-04-24T00:08:59.620Z,84.45
2023-04-24T00:09:59.603Z,83.73
2023-04-24T00:10:59.660Z,85.06
2023-04-24T00:11:59.602Z,84.55
2023-04-24T00:12:59.602Z,84.75
2023-04-24T00:13:59.577Z,85.06
2023-04-24T00:14:59.552Z,83.94
2023-04-24T00:15:59.604Z,84.45
2023-04-24T00:16:59.619Z,84.66
2023-04-24T00:17:59.629Z,84.66
2023-04-24T00:18:59.560Z,84.04
2023-04-24T00:19:59.623Z,83.94
2023-04-24T00:20:59.495Z,84.18
2023-04-24T00:21:59.515Z,84.69
2023-04-24T00:22:59.485Z,84.69
2023-04-24T00:23:59.492Z,85.21
2023-04-24T00:24:59.474Z,85.41
2023-04-24T00:25:59.461Z,85.30
2023-04-24T00:26:59.464Z,85.10
2023-04-24T00:27:59.468Z,85.30
2023-04-24T00:29:00.322Z,85.21
2023-04-24T00:29:59.403Z,84.80
2023-04-24T00:30:59.434Z,84.90
2023-04-24T00:31:59.458Z,84.96
2023-04-24T00:32:59.483Z,85.00
2023-04-24T00:33:59.395Z,84.90
2023-04-24T00:34:59.382Z,83.87
2023-04-24T00:35:59.408Z,83.43
2023-04-24T00:36:59.387Z,84.86
2023-04-24T00:37:59.350Z,84.66
2023-04-24T00:38:59.374Z,84.69
2023-04-24T00:39:59.313Z,84.04
2023-04-24T00:40:59.292Z,84.25
2023-04-24T00:42:00.330Z,84.49
2023-04-24T00:42:59.374Z,84.25
2023-04-24T00:43:59.287Z,84.49
2023-04-24T00:44:59.279Z,84.34
2023-04-24T00:45:59.268Z,84.34
2023-04-24T00:46:59.250Z,84.45
2023-04-24T00:47:59.326Z,84.45
2023-04-24T00:48:59.230Z,84.96
2023-04-24T00:49:59.243Z,84.14
2023-04-24T00:50:59.254Z,84.04
2023-04-24T00:51:59.214Z,84.45
2023-04-24T00:52:59.231Z,83.53
2023-04-24T00:53:59.187Z,84.14
2023-04-24T00:54:59.204Z,83.73
2023-04-24T00:55:59.165Z,83.84
2023-04-24T00:56:59.150Z,83.70
2023-04-24T00:57:59.140Z,83.84
2023-04-24T00:58:59.135Z,83.73
2023-04-24T00:59:59.152Z,83.53
2023-04-24T01:00:59.201Z,83.49
2023-04-24T01:01:59.110Z,83.73
2023-04-24T01:02:59.280Z,83.90
2023-04-24T01:03:59.224Z,83.94
2023-04-24T01:04:59.092Z,83.84
2023-04-24T01:05:59.098Z,83.53
2023-04-24T01:06:59.070Z,83.80
2023-04-24T01:07:59.046Z,83.63
2023-04-24T01:08:59.074Z,83.94
2023-04-24T01:09:59.018Z,83.84
2023-04-24T01:10:59.024Z,83.59
2023-04-24T01:11:58.994Z,83.80
2023-04-24T01:12:59.020Z,83.53
2023-04-24T01:13:58.992Z,83.80
2023-04-24T01:14:59.016Z,83.63
2023-04-24T01:15:59.024Z,83.53
2023-04-24T01:16:58.973Z,83.70
2023-04-24T01:17:58.969Z,83.23
2023-04-24T01:18:58.932Z,83.84
2023-04-24T01:19:58.997Z,83.63
2023-04-24T01:20:58.918Z,83.12
2023-04-24T01:21:58.896Z,83.43
2023-04-24T01:22:58.914Z,83.02
2023-04-24T01:23:58.904Z,83.33
2023-04-24T01:24:58.888Z,83.23
2023-04-24T01:25:58.894Z,83.23
2023-04-24T01:26:58.866Z,83.73
2023-04-24T01:27:58.857Z,83.53
2023-04-24T01:28:58.881Z,83.63
2023-04-24T01:29:58.877Z,83.73
2023-04-24T01:30:58.893Z,83.43
2023-04-24T01:31:58.796Z,83.78
2023-04-24T01:32:58.853Z,83.67
2023-04-24T01:33:58.808Z,83.87
2023-04-24T01:34:58.846Z,83.67
2023-04-24T01:35:58.772Z,83.98
2023-04-24T01:36:58.751Z,83.94
2023-04-24T01:37:58.738Z,83.87
2023-04-24T01:38:58.758Z,83.67
2023-04-24T01:39:58.753Z,83.87
2023-04-24T01:40:58.710Z,83.78
2023-04-24T01:41:58.726Z,83.78
2023-04-24T01:42:58.699Z,83.67
2023-04-24T01:43:58.695Z,83.67
2023-04-24T01:44:58.681Z,83.87
2023-04-24T01:45:58.668Z,83.61
2023-04-24T01:46:58.789Z,83.78
2023-04-24T01:47:58.743Z,83.78
2023-04-24T01:48:58.644Z,83.87
2023-04-24T01:49:58.637Z,83.78
2023-04-24T01:50:58.646Z,83.78
2023-04-24T01:51:58.630Z,83.71
2023-04-24T01:52:58.615Z,83.87
2023-04-24T01:53:58.586Z,83.71
2023-04-24T01:54:58.571Z,83.81
2023-04-24T01:55:58.588Z,83.61
2023-04-24T01:56:58.581Z,83.67
2023-04-24T01:57:58.546Z,83.81
2023-04-24T01:58:58.597Z,83.61
2023-04-24T01:59:58.554Z,83.87
2023-04-24T02:00:58.663Z,83.61
2023-04-24T02:01:58.519Z,84.28
2023-04-24T02:02:58.607Z,84.01
2023-04-24T02:03:58.591Z,83.71
2023-04-24T02:04:58.485Z,83.71
2023-04-24T02:05:58.506Z,84.12
2023-04-24T02:06:58.473Z,84.12
2023-04-24T02:07:58.437Z,84.42
2023-04-24T02:08:58.440Z,84.22
2023-04-24T02:09:58.421Z,84.12
2023-04-24T02:10:58.444Z,84.83
2023-04-24T02:11:58.396Z,84.42
2023-04-24T02:12:58.387Z,84.49
2023-04-24T02:13:58.406Z,84.53
2023-04-24T02:14:58.404Z,84.22
2023-04-24T02:15:58.420Z,84.59
2023-04-24T02:16:58.363Z,84.22
2023-04-24T02:17:58.360Z,83.92
2023-04-24T02:18:58.374Z,83.57
2023-04-24T02:19:58.339Z,83.61
2023-04-24T02:20:58.332Z,84.69
2023-04-24T02:21:58.305Z,83.67
2023-04-24T02:22:58.302Z,84.18
2023-04-24T02:23:58.280Z,83.67
2023-04-24T02:24:58.288Z,83.51
2023-04-24T02:25:58.296Z,84.69
2023-04-24T02:26:58.291Z,83.57
2023-04-24T02:27:58.253Z,84.08
2023-04-24T02:28:58.233Z,83.67
2023-04-24T02:29:58.220Z,83.98
2023-04-24T02:30:58.206Z,83.87
2023-04-24T02:31:58.311Z,83.78
2023-04-24T02:32:58.192Z,83.67
2023-04-24T02:33:58.244Z,83.67
2023-04-24T02:34:58.243Z,83.98
2023-04-24T02:35:58.218Z,83.67
2023-04-24T02:36:58.158Z,83.98
2023-04-24T02:37:58.830Z,83.67
2023-04-24T02:38:58.151Z,84.28
2023-04-24T02:39:58.156Z,83.78
2023-04-24T02:40:58.121Z,83.67
2023-04-24T02:41:58.099Z,83.57
2023-04-24T02:42:58.095Z,84.08
2023-04-24T02:43:58.112Z,83.78
2023-04-24T02:44:58.837Z,83.67
2023-04-24T02:45:58.087Z,83.98
2023-04-24T02:46:58.059Z,83.26
2023-04-24T02:47:58.092Z,83.16
2023-04-24T02:48:58.064Z,83.26
2023-04-24T02:49:58.013Z,83.12
2023-04-24T02:50:58.046Z,82.92
2023-04-24T02:51:58.021Z,83.37
2023-04-24T02:52:57.986Z,83.33
2023-04-24T02:53:58.057Z,82.71
2023-04-24T02:54:57.972Z,83.06
2023-04-24T02:55:57.976Z,82.92
2023-04-24T02:56:57.950Z,82.96
2023-04-24T02:57:57.942Z,82.86
2023-04-24T02:58:57.956Z,82.71
2023-04-24T02:59:57.952Z,82.45
2023-04-24T03:01:29.845Z,82.65
2023-04-24T03:01:57.891Z,82.75
2023-04-24T03:02:58.039Z,82.96
2023-04-24T03:03:58.060Z,83.33
2023-04-24T03:04:57.862Z,82.71
2023-04-24T03:05:57.836Z,82.92
2023-04-24T03:06:58.870Z,82.31
2023-04-24T03:07:57.848Z,82.61
2023-04-24T03:08:57.843Z,82.61
2023-04-24T03:09:57.810Z,82.41
2023-04-24T03:10:57.808Z,82.65
2023-04-24T03:11:57.789Z,82.61
2023-04-24T03:12:57.787Z,82.61
2023-04-24T03:13:57.795Z,82.41
2023-04-24T03:14:57.763Z,82.41
2023-04-24T03:15:57.806Z,82.31
2023-04-24T03:16:57.748Z,82.41
2023-04-24T03:17:57.757Z,82.51
2023-04-24T03:18:57.746Z,82.41
2023-04-24T03:19:57.738Z,81.90
2023-04-24T03:20:57.723Z,82.82
2023-04-24T03:21:57.705Z,82.10
2023-04-24T03:22:57.689Z,82.41
2023-04-24T03:23:57.693Z,82.51
2023-04-24T03:24:57.661Z,82.41
2023-04-24T03:25:57.669Z,82.41
2023-04-24T03:26:57.657Z,82.31
2023-04-24T03:27:57.645Z,81.90
2023-04-24T03:28:57.624Z,82.31
2023-04-24T03:29:57.609Z,82.10
2023-04-24T03:30:57.614Z,82.31
2023-04-24T03:31:57.653Z,82.61
2023-04-24T03:32:57.608Z,82.51
2023-04-24T03:33:57.572Z,82.41
2023-04-24T03:34:57.559Z,82.61
2023-04-24T03:35:57.566Z,81.90
2023-04-24T03:36:57.535Z,82.41
2023-04-24T03:37:57.561Z,82.61
2023-04-24T03:38:57.517Z,82.55
2023-04-24T03:39:57.518Z,82.65
2023-04-24T03:40:57.521Z,83.16
2023-04-24T03:41:57.535Z,82.96
2023-04-24T03:42:57.474Z,82.96
2023-04-24T03:43:57.485Z,82.86
2023-04-24T03:44:57.457Z,82.75
2023-04-24T03:45:57.490Z,82.65
2023-04-24T03:46:57.473Z,82.75
2023-04-24T03:47:57.503Z,82.35
2023-04-24T03:48:57.477Z,83.47
2023-04-24T03:49:57.431Z,83.30
2023-04-24T03:50:57.424Z,83.26
2023-04-24T03:51:57.410Z,82.75
2023-04-24T03:52:57.384Z,82.86
2023-04-24T03:53:57.370Z,82.96
2023-04-24T03:54:57.365Z,83.47
2023-04-24T03:55:57.368Z,83.26
2023-04-24T03:56:57.378Z,83.81
2023-04-24T03:57:57.351Z,83.81
2023-04-24T03:58:57.327Z,84.90
2023-04-24T03:59:57.311Z,84.69
2023-04-24T04:00:57.334Z,85.45
2023-04-24T04:01:57.299Z,85.35
2023-04-24T04:02:57.449Z,85.65
2023-04-24T04:03:57.456Z,85.75
2023-04-24T04:04:57.286Z,85.96
2023-04-24T04:05:57.256Z,86.36
2023-04-24T04:06:57.231Z,86.36
2023-04-24T04:07:57.234Z,86.36
2023-04-24T04:08:57.233Z,87.08
2023-04-24T04:09:57.200Z,86.88
2023-04-24T04:10:57.222Z,87.02
2023-04-24T04:11:57.189Z,87.12
2023-04-24T04:12:57.170Z,87.73
2023-04-24T04:13:57.222Z,87.73
2023-04-24T04:14:57.189Z,87.38
2023-04-24T04:15:57.211Z,87.84
2023-04-24T04:16:57.228Z,88.35
2023-04-24T04:17:57.169Z,87.59
2023-04-24T04:18:57.169Z,87.49
2023-04-24T04:19:57.104Z,87.49
2023-04-24T04:20:57.124Z,87.32
2023-04-24T04:21:57.166Z,87.02
2023-04-24T04:22:57.072Z,87.12
2023-04-24T04:23:57.071Z,87.63
2023-04-24T04:24:57.048Z,87.63
2023-04-24T04:25:58.071Z,87.70
2023-04-24T04:26:57.052Z,87.43
2023-04-24T04:27:57.024Z,87.43
2023-04-24T04:28:57.020Z,88.04
2023-04-24T04:29:57.837Z,88.04
2023-04-24T04:30:57.016Z,87.59
2023-04-24T04:31:57.078Z,87.43
2023-04-24T04:32:57.036Z,87.53
2023-04-24T04:33:56.968Z,87.94
2023-04-24T04:34:56.990Z,87.73
2023-04-24T04:35:56.943Z,88.04
2023-04-24T04:36:56.985Z,88.24
2023-04-24T04:37:56.942Z,88.76
2023-04-24T04:38:56.925Z,88.65
2023-04-24T04:39:56.929Z,88.70
2023-04-24T04:40:56.898Z,88.65
2023-04-24T04:41:56.895Z,88.79
2023-04-24T04:42:57.888Z,88.59
2023-04-24T04:43:56.880Z,88.85
2023-04-24T04:44:56.894Z,89.47
2023-04-24T04:45:57.017Z,89.06
2023-04-24T04:46:56.853Z,88.96
2023-04-24T04:47:56.884Z,88.85
2023-04-24T04:48:56.816Z,88.96
2023-04-24T04:49:56.860Z,89.06
2023-04-24T04:50:56.803Z,89.37
2023-04-24T04:51:56.839Z,88.85
2023-04-24T04:52:56.784Z,88.76
2023-04-24T04:53:56.766Z,88.04
2023-04-24T04:54:56.779Z,87.94
2023-04-24T04:55:57.746Z,88.35
2023-04-24T04:56:56.850Z,88.14
2023-04-24T04:57:56.768Z,87.63
2023-04-24T04:58:56.723Z,87.43
2023-04-24T04:59:56.705Z,85.69
2023-04-24T05:00:56.746Z,85.79
2023-04-24T05:01:56.720Z,86.10
2023-04-24T05:03:05.973Z,85.59
2023-04-24T05:03:58.821Z,85.28
2023-04-24T05:04:56.729Z,84.57
2023-04-24T05:05:56.675Z,83.04
2023-04-24T05:06:56.634Z,82.63
2023-04-24T05:07:56.638Z,81.91
2023-04-24T05:08:56.614Z,80.85
2023-04-24T05:09:56.626Z,80.79
2023-04-24T05:10:56.614Z,80.44
2023-04-24T05:11:56.602Z,79.43
2023-04-24T05:12:56.602Z,79.73
2023-04-24T05:13:56.569Z,79.73
2023-04-24T05:14:56.563Z,79.43
2023-04-24T05:15:56.552Z,78.91
2023-04-24T05:16:56.637Z,78.61
2023-04-24T05:17:57.957Z,79.43
2023-04-24T05:18:57.513Z,79.32
2023-04-24T05:19:56.514Z,79.63
2023-04-24T05:20:56.505Z,78.71
2023-04-24T05:21:56.506Z,78.64
2023-04-24T05:22:56.516Z,79.43
2023-04-24T05:23:56.471Z,77.75
2023-04-24T05:24:56.454Z,76.63
2023-04-24T05:25:56.521Z,76.63
2023-04-24T05:26:56.461Z,76.63
2023-04-24T05:27:56.424Z,75.98
2023-04-24T05:28:56.420Z,71.23
2023-04-24T05:29:56.435Z,70.99
2023-04-24T05:30:56.427Z,71.64
2023-04-24T05:31:56.455Z,71.56
2023-04-24T05:32:56.423Z,71.77
2023-04-24T05:33:56.376Z,71.56
2023-04-24T05:34:56.364Z,71.16
2023-04-24T05:35:56.362Z,71.23
2023-04-24T05:36:56.372Z,72.96
2023-04-24T05:37:56.375Z,72.69
2023-04-24T05:38:56.333Z,73.19
2023-04-24T05:39:56.308Z,73.91
2023-04-24T05:40:56.315Z,73.91
2023-04-24T05:41:56.282Z,74.21
2023-04-24T05:42:56.326Z,74.25
2023-04-24T05:43:56.295Z,74.25
2023-04-24T05:44:57.932Z,75.16
2023-04-24T05:45:56.316Z,75.07
2023-04-24T05:46:56.335Z,74.42
2023-04-24T05:47:56.253Z,72.55
2023-04-24T05:48:56.249Z,72.65
2023-04-24T05:49:56.211Z,72.79
2023-04-24T05:50:56.200Z,74.42
2023-04-24T05:51:56.241Z,74.42
2023-04-24T05:52:56.183Z,74.35
2023-04-24T05:53:56.266Z,74.45
2023-04-24T05:54:56.151Z,72.82
2023-04-24T05:55:56.156Z,72.86
2023-04-24T05:56:56.186Z,74.18
2023-04-24T05:57:56.137Z,72.99
2023-04-24T05:58:56.138Z,72.28
2023-04-24T05:59:56.135Z,72.48
2023-04-24T06:00:56.097Z,71.87
2023-04-24T06:01:56.096Z,71.50
2023-04-24T06:02:56.226Z,66.28
2023-04-24T06:03:56.145Z,64.15
2023-04-24T06:04:56.212Z,64.76
2023-04-24T06:05:56.039Z,62.98
2023-04-24T06:06:56.032Z,59.65
2023-04-24T06:07:56.016Z,59.33
2023-04-24T06:08:56.038Z,61.65
2023-04-24T06:09:56.025Z,63.10
2023-04-24T06:10:56.083Z,63.74
2023-04-24T06:11:55.986Z,63.11
2023-04-24T06:12:55.966Z,61.16
2023-04-24T06:13:55.958Z,63.04
2023-04-24T06:14:55.961Z,63.71
2023-04-24T06:15:55.979Z,64.20
2023-04-24T06:16:56.054Z,65.43
2023-04-24T06:17:55.949Z,67.08
2023-04-24T06:18:55.916Z,63.32
2023-04-24T06:19:55.907Z,61.05
2023-04-24T06:20:55.915Z,60.53
2023-04-24T06:21:55.926Z,57.87
2023-04-24T06:22:55.870Z,54.83
2023-04-24T06:23:55.865Z,55.82
2023-04-24T06:24:55.852Z,54.86
2023-04-24T06:25:56.864Z,57.90
2023-04-24T06:26:55.850Z,57.39
2023-04-24T06:27:55.837Z,55.11
2023-04-24T06:28:55.832Z,55.59
2023-04-24T06:29:55.830Z,56.53
2023-04-24T06:30:55.813Z,58.36
2023-04-24T06:31:55.822Z,58.61
2023-04-24T06:32:58.722Z,57.40
2023-04-24T06:33:57.787Z,58.06
2023-04-24T06:34:56.064Z,58.11
2023-04-24T06:35:55.745Z,57.53
2023-04-24T06:36:55.752Z,59.53
2023-04-24T06:37:55.810Z,60.11
2023-04-24T06:38:55.739Z,58.54
2023-04-24T06:39:55.698Z,56.51
2023-04-24T06:40:55.694Z,55.11
2023-04-24T06:41:55.684Z,55.87
2023-04-24T06:42:55.687Z,53.60
2023-04-24T06:43:55.658Z,55.24
2023-04-24T06:44:55.693Z,55.90
2023-04-24T06:45:55.648Z,56.71
2023-04-24T06:46:55.642Z,55.85
2023-04-24T06:47:55.665Z,56.66
2023-04-24T06:48:55.620Z,53.75
2023-04-24T06:49:55.734Z,53.98
2023-04-24T06:50:55.589Z,57.03
2023-04-24T06:51:55.622Z,57.92
2023-04-24T06:52:55.574Z,59.50
2023-04-24T06:53:55.554Z,61.25
2023-04-24T06:54:55.545Z,60.66
2023-04-24T06:55:55.556Z,58.80
2023-04-24T06:56:55.539Z,57.66
2023-04-24T06:57:55.546Z,59.14
2023-04-24T06:58:55.520Z,59.47
2023-04-24T06:59:55.504Z,57.60
2023-04-24T07:00:55.531Z,55.40
2023-04-24T07:01:55.885Z,55.43
2023-04-24T07:02:55.655Z,56.99
2023-04-24T07:03:55.969Z,57.33
2023-04-24T07:04:55.456Z,57.18
2023-04-24T07:05:55.447Z,56.41
2023-04-24T07:06:55.427Z,57.05
2023-04-24T07:07:55.424Z,57.84
2023-04-24T07:08:55.459Z,54.92
2023-04-24T07:09:55.439Z,52.97
2023-04-24T07:10:55.389Z,51.53
2023-04-24T07:11:55.377Z,53.67
2023-04-24T07:12:55.375Z,52.99
2023-04-24T07:13:55.354Z,51.28
2023-04-24T07:14:55.405Z,52.11
2023-04-24T07:15:55.376Z,52.89
2023-04-24T07:16:55.323Z,52.84
2023-04-24T07:17:55.348Z,51.81
2023-04-24T07:18:55.309Z,52.13
2023-04-24T07:19:55.305Z,53.14
2023-04-24T07:20:55.314Z,53.88
2023-04-24T07:21:55.277Z,53.34
2023-04-24T07:22:55.284Z,52.99
2023-04-24T07:23:55.276Z,54.36
2023-04-24T07:24:55.258Z,54.90
2023-04-24T07:25:55.238Z,55.63
2023-04-24T07:26:55.260Z,55.66
2023-04-24T07:27:55.219Z,55.86
2023-04-24T07:28:55.217Z,54.24
2023-04-24T07:29:55.272Z,54.03
2023-04-24T07:30:55.276Z,54.21
2023-04-24T07:31:55.275Z,54.03
2023-04-24T07:32:55.202Z,53.27
2023-04-24T07:33:55.185Z,53.05
2023-04-24T07:34:55.158Z,51.32
2023-04-24T07:35:55.150Z,51.62
2023-04-24T07:36:55.143Z,50.72
2023-04-24T07:37:55.134Z,50.14
2023-04-24T07:38:55.138Z,51.78
2023-04-24T07:39:55.103Z,51.43
2023-04-24T07:40:55.104Z,49.21
2023-04-24T07:41:55.095Z,51.20
2023-04-24T07:42:55.067Z,49.01
2023-04-24T07:43:55.054Z,49.58
2023-04-24T07:44:55.080Z,50.94
2023-04-24T07:45:55.089Z,52.31
2023-04-24T07:46:55.200Z,53.25
2023-04-24T07:47:55.074Z,54.26
2023-04-24T07:49:05.684Z,53.37
2023-04-24T07:49:57.042Z,54.00
2023-04-24T07:50:54.996Z,54.24
2023-04-24T07:51:54.972Z,54.64
2023-04-24T07:52:54.998Z,54.64
2023-04-24T07:53:54.961Z,54.16
2023-04-24T07:54:54.964Z,54.46
2023-04-24T07:55:54.935Z,55.78
2023-04-24T07:56:54.977Z,55.20
2023-04-24T07:57:54.949Z,56.09
2023-04-24T07:58:54.919Z,55.15
2023-04-24T07:59:54.914Z,54.92
2023-04-24T08:00:54.943Z,54.11
2023-04-24T08:01:55.107Z,54.94
2023-04-24T08:02:54.993Z,55.35
2023-04-24T08:03:55.149Z,55.68
2023-04-24T08:04:55.060Z,54.97
2023-04-24T08:05:54.956Z,55.78
2023-04-24T08:06:54.932Z,55.83
2023-04-24T08:07:54.904Z,57.36
2023-04-24T08:08:55.004Z,56.16
2023-04-24T08:09:54.877Z,56.77
2023-04-24T08:10:54.846Z,57.01
2023-04-24T08:11:54.809Z,57.72
2023-04-24T08:12:54.796Z,58.53
2023-04-24T08:13:55.986Z,56.82
2023-04-24T08:14:54.779Z,55.07
2023-04-24T08:15:54.818Z,55.05
2023-04-24T08:16:54.742Z,54.18
2023-04-24T08:17:55.746Z,54.69
2023-04-24T08:18:54.712Z,54.31
2023-04-24T08:19:54.709Z,55.12
2023-04-24T08:20:54.693Z,54.64
2023-04-24T08:21:54.686Z,54.16
2023-04-24T08:22:54.697Z,54.21
2023-04-24T08:23:54.658Z,55.53
2023-04-24T08:24:54.643Z,55.48
2023-04-24T08:25:54.647Z,55.35
2023-04-24T08:26:54.927Z,55.58
2023-04-24T08:27:54.773Z,54.59
2023-04-24T08:28:54.607Z,54.64
2023-04-24T08:29:54.604Z,54.16
2023-04-24T08:30:54.614Z,53.93
2023-04-24T08:31:54.658Z,54.18
2023-04-24T08:32:54.644Z,53.47
2023-04-24T08:33:54.580Z,52.89
2023-04-24T08:34:54.582Z,54.16
2023-04-24T08:35:54.540Z,54.36
2023-04-24T08:36:54.533Z,56.39
2023-04-24T08:37:54.555Z,56.32
2023-04-24T08:38:54.521Z,57.06
2023-04-24T08:39:54.511Z,57.77
2023-04-24T08:40:54.490Z,57.36
2023-04-24T08:41:54.494Z,57.39
2023-04-24T08:42:54.459Z,58.38
2023-04-24T08:43:54.474Z,57.59
2023-04-24T08:44:54.450Z,58.74
2023-04-24T08:45:56.605Z,59.05
2023-04-24T08:46:55.506Z,59.55
2023-04-24T08:47:54.472Z,58.92
2023-04-24T08:48:54.441Z,58.35
2023-04-24T08:49:54.403Z,56.80
2023-04-24T08:50:54.408Z,57.51
2023-04-24T08:51:54.374Z,58.04
2023-04-24T08:52:54.367Z,57.46
2023-04-24T08:53:54.373Z,58.61
2023-04-24T08:54:54.363Z,58.51
2023-04-24T08:55:54.338Z,58.44
2023-04-24T08:56:54.316Z,57.92
2023-04-24T08:57:54.321Z,58.74
2023-04-24T08:58:54.301Z,58.33
2023-04-24T08:59:54.347Z,57.62
2023-04-24T09:00:54.323Z,59.05
2023-04-24T09:02:26.356Z,58.84
2023-04-24T09:02:54.366Z,58.92
2023-04-24T09:03:54.532Z,58.40
2023-04-24T09:04:54.251Z,58.28
2023-04-24T09:05:54.257Z,57.95
2023-04-24T09:06:54.222Z,58.25
2023-04-24T09:07:54.235Z,57.34
2023-04-24T09:08:54.284Z,57.21
2023-04-24T09:09:54.232Z,56.21
2023-04-24T09:10:54.206Z,56.93
2023-04-24T09:11:54.205Z,56.21
2023-04-24T09:12:54.181Z,56.95
2023-04-24T09:13:54.163Z,56.52
2023-04-24T09:14:54.158Z,56.65
2023-04-24T09:15:54.150Z,56.04
2023-04-24T09:16:54.248Z,56.75
2023-04-24T09:17:54.176Z,56.55
2023-04-24T09:18:54.121Z,57.03
2023-04-24T09:19:54.120Z,56.09
2023-04-24T09:20:54.101Z,56.29
2023-04-24T09:21:54.127Z,55.53
2023-04-24T09:22:54.067Z,54.59
2023-04-24T09:23:54.078Z,54.18
2023-04-24T09:24:54.063Z,55.20
2023-04-24T09:25:54.063Z,54.41
2023-04-24T09:26:54.050Z,53.91
2023-04-24T09:27:54.031Z,54.66
2023-04-24T09:28:53.994Z,55.38
2023-04-24T09:29:54.032Z,56.12
2023-04-24T09:30:54.009Z,56.21
2023-04-24T09:31:54.006Z,56.82
2023-04-24T09:32:54.030Z,57.13
2023-04-24T09:33:53.970Z,56.82
2023-04-24T09:34:54.007Z,56.82
2023-04-24T09:35:53.959Z,56.62
2023-04-24T09:36:53.920Z,56.62
2023-04-24T09:37:53.930Z,56.93
2023-04-24T09:38:53.924Z,58.15
2023-04-24T09:39:53.876Z,58.15
2023-04-24T09:40:53.899Z,56.75
2023-04-24T09:41:53.920Z,56.85
2023-04-24T09:42:53.876Z,57.26
2023-04-24T09:43:53.844Z,57.39
2023-04-24T09:45:01.567Z,58.71
2023-04-24T09:45:58.023Z,57.79
2023-04-24T09:46:53.831Z,57.49
2023-04-24T09:47:53.840Z,57.77
2023-04-24T09:48:53.786Z,58.45
2023-04-24T09:49:53.803Z,57.64
2023-04-24T09:50:53.783Z,57.16
2023-04-24T09:51:53.760Z,56.93
2023-04-24T09:52:53.751Z,57.26
2023-04-24T09:53:53.776Z,57.23
2023-04-24T09:54:53.741Z,57.34
2023-04-24T09:55:53.721Z,56.60
2023-04-24T09:56:53.709Z,56.90
2023-04-24T09:57:53.706Z,56.98
2023-04-24T09:58:53.710Z,56.70
2023-04-24T09:59:53.690Z,57.51
2023-04-24T10:00:53.674Z,56.42
2023-04-24T10:01:53.770Z,56.95
2023-04-24T10:02:53.731Z,58.51
2023-04-24T10:03:53.650Z,58.51
2023-04-24T10:04:53.669Z,58.30
2023-04-24T10:05:53.676Z,58.30
2023-04-24T10:06:53.623Z,59.05
2023-04-24T10:07:53.596Z,59.05
2023-04-24T10:08:53.599Z,59.45
2023-04-24T10:09:53.598Z,59.73
2023-04-24T10:10:53.629Z,59.22
2023-04-24T10:11:53.555Z,59.53
2023-04-24T10:12:53.586Z,59.53
2023-04-24T10:13:53.526Z,59.42
2023-04-24T10:14:53.571Z,59.53
2023-04-24T10:15:53.540Z,59.22
2023-04-24T10:16:53.563Z,60.09
2023-04-24T10:17:53.599Z,60.60
2023-04-24T10:18:53.503Z,60.80
2023-04-24T10:19:53.553Z,61.14
2023-04-24T10:20:53.518Z,61.24
2023-04-24T10:21:53.473Z,61.24
2023-04-24T10:22:53.488Z,62.05
2023-04-24T10:23:53.452Z,61.98
2023-04-24T10:24:53.504Z,61.75
2023-04-24T10:25:53.449Z,62.29
2023-04-24T10:26:53.426Z,62.05
2023-04-24T10:27:53.428Z,62.08
2023-04-24T10:28:53.442Z,62.18
2023-04-24T10:29:53.402Z,63.51
2023-04-24T10:30:53.403Z,63.10
2023-04-24T10:31:53.396Z,63.31
2023-04-24T10:32:53.398Z,63.54
2023-04-24T10:33:53.371Z,62.59
2023-04-24T10:34:53.340Z,63.20
2023-04-24T10:35:53.339Z,61.98
2023-04-24T10:36:54.348Z,62.08
2023-04-24T10:37:53.297Z,63.00
2023-04-24T10:38:53.291Z,62.49
2023-04-24T10:39:53.323Z,61.98
2023-04-24T10:40:53.296Z,62.26
2023-04-24T10:41:53.299Z,62.36
2023-04-24T10:42:53.349Z,61.93
2023-04-24T10:43:53.277Z,61.79
2023-04-24T10:44:53.362Z,61.25
2023-04-24T10:45:53.218Z,60.75
2023-04-24T10:46:53.218Z,60.54
2023-04-24T10:47:53.276Z,60.44
2023-04-24T10:48:53.222Z,60.61
2023-04-24T10:49:53.208Z,60.00
2023-04-24T10:50:53.180Z,59.91
2023-04-24T10:51:53.148Z,60.21
2023-04-24T10:52:53.204Z,59.09
2023-04-24T10:53:54.182Z,59.63
2023-04-24T10:54:53.155Z,59.42
2023-04-24T10:55:53.169Z,59.53
2023-04-24T10:56:53.192Z,59.73
2023-04-24T10:57:53.123Z,60.64
2023-04-24T10:58:53.117Z,61.79
2023-04-24T10:59:53.157Z,62.30
2023-04-24T11:00:53.092Z,62.40
2023-04-24T11:01:53.062Z,62.74
2023-04-24T11:02:53.138Z,63.15
2023-04-24T11:03:53.269Z,63.65
2023-04-24T11:04:53.064Z,64.95
2023-04-24T11:05:53.079Z,66.88
2023-04-24T11:06:53.024Z,65.22
2023-04-24T11:07:53.005Z,65.66
2023-04-24T11:08:52.995Z,67.97
2023-04-24T11:09:52.979Z,66.85
2023-04-24T11:10:52.989Z,66.18
2023-04-24T11:11:52.992Z,67.71
2023-04-24T11:12:52.996Z,64.86
2023-04-24T11:13:52.979Z,67.19
2023-04-24T11:14:52.916Z,66.49
2023-04-24T11:15:52.909Z,65.88
2023-04-24T11:16:52.983Z,66.15
2023-04-24T11:17:52.974Z,64.73
2023-04-24T11:18:52.915Z,64.25
2023-04-24T11:19:54.572Z,63.43
2023-04-24T11:20:52.856Z,63.46
2023-04-24T11:21:52.897Z,64.45
2023-04-24T11:22:52.878Z,64.86
2023-04-24T11:23:52.861Z,64.99
2023-04-24T11:24:52.848Z,64.69
2023-04-24T11:25:52.816Z,65.50
2023-04-24T11:26:52.813Z,65.88
2023-04-24T11:27:52.810Z,65.06
2023-04-24T11:28:52.805Z,65.26
2023-04-24T11:29:52.764Z,65.16
2023-04-24T11:30:52.773Z,65.91
2023-04-24T11:31:52.775Z,67.22
2023-04-24T11:32:52.765Z,66.11
2023-04-24T11:33:52.742Z,65.60
2023-04-24T11:34:52.743Z,66.24
2023-04-24T11:35:52.733Z,66.55
2023-04-24T11:36:52.741Z,66.47
2023-04-24T11:38:52.677Z,66.17
2023-04-24T11:39:52.693Z,67.60
2023-04-24T11:40:52.716Z,67.60
2023-04-24T11:41:52.668Z,67.60
2023-04-24T11:42:52.660Z,68.01
2023-04-24T11:43:52.645Z,68.04
2023-04-24T11:44:52.613Z,69.36
2023-04-24T11:45:52.704Z,68.37
2023-04-24T11:46:52.626Z,67.93
2023-04-24T11:47:52.761Z,68.65
2023-04-24T11:48:52.662Z,68.13
2023-04-24T11:49:52.563Z,68.13
2023-04-24T11:50:52.581Z,68.65
2023-04-24T11:51:53.996Z,68.44
2023-04-24T11:52:53.540Z,68.21
2023-04-24T11:54:01.518Z,69.02
2023-04-24T11:54:53.580Z,66.68
2023-04-24T11:55:52.554Z,66.27
2023-04-24T11:56:52.531Z,66.35
2023-04-24T11:57:52.518Z,66.61
2023-04-24T11:58:52.489Z,65.19
2023-04-24T11:59:52.485Z,64.07
2023-04-24T12:00:52.527Z,63.77
2023-04-24T12:01:52.466Z,63.97
2023-04-24T12:02:52.664Z,63.36
2023-04-24T12:03:52.673Z,63.13
2023-04-24T12:04:52.696Z,63.16
2023-04-24T12:05:52.457Z,61.10
2023-04-24T12:06:52.458Z,59.88
2023-04-24T12:07:52.407Z,59.37
2023-04-24T12:08:52.398Z,59.50
2023-04-24T12:09:52.813Z,59.30
2023-04-24T12:10:52.358Z,59.19
2023-04-24T12:11:52.398Z,59.47
2023-04-24T12:12:52.394Z,59.88
2023-04-24T12:13:52.944Z,58.53
2023-04-24T12:14:52.339Z,60.36
2023-04-24T12:15:52.357Z,60.05
2023-04-24T12:16:52.293Z,59.24
2023-04-24T12:17:52.426Z,59.47
2023-04-24T12:18:52.275Z,59.67
2023-04-24T12:19:52.314Z,61.27
2023-04-24T12:20:52.314Z,59.98
2023-04-24T12:21:52.250Z,60.38
2023-04-24T12:22:52.257Z,59.16
2023-04-24T12:23:52.272Z,60.21
2023-04-24T12:24:52.211Z,60.52
2023-04-24T12:25:52.245Z,61.13
2023-04-24T12:26:52.218Z,61.22
2023-04-24T12:27:52.184Z,61.36
2023-04-24T12:28:52.170Z,61.83
2023-04-24T12:29:52.159Z,61.22
2023-04-24T12:30:52.156Z,61.30
2023-04-24T12:31:52.219Z,59.98
2023-04-24T12:32:52.191Z,59.16
2023-04-24T12:33:52.145Z,59.75
2023-04-24T12:34:52.108Z,59.24
2023-04-24T12:35:52.369Z,58.86
2023-04-24T12:36:52.106Z,59.88
2023-04-24T12:37:52.084Z,58.96
2023-04-24T12:38:52.097Z,59.64
2023-04-24T12:39:52.069Z,58.45
2023-04-24T12:40:52.086Z,59.47
2023-04-24T12:41:52.112Z,58.40
2023-04-24T12:42:52.033Z,60.54
2023-04-24T12:43:53.062Z,60.34
2023-04-24T12:44:52.004Z,59.32
2023-04-24T12:45:51.981Z,59.73
2023-04-24T12:46:52.058Z,61.25
2023-04-24T12:47:52.041Z,60.77
2023-04-24T12:48:51.962Z,61.36
2023-04-24T12:49:52.000Z,62.27
2023-04-24T12:50:52.943Z,61.83
2023-04-24T12:51:51.967Z,61.71
2023-04-24T12:52:51.936Z,61.10
2023-04-24T12:53:51.959Z,61.30